Airfield :
LOGIN :

Register | Disclaimer

   EN    FR    IT 

 










Legend :    VFR   Marginal VFR   IFR   Intensive IFR   Very Intensive IFR
Visi :
Ceiling :
>= 8 km
>= 3000ft
5 to 8 km
1000 to 3000 ft
1500m to 5 km
500 to 1000 ft
800 to 1500m
200 to 500 ft
< 800m
< 200 ft
Symbols :   Thunderstorms  Fog  Heavy snow  Heavy precipitations  Wind > 20 kt
SIGMETs :     Misc.  Thunderstorms  Icing  Turbulence  Mountain Waves  Volcanic Ashes






- Airport Elevation : 218 ft
- IATA code : LBG


LFPB - Paris / Le Bourget

CURRENT METAR :
  • 142230Z AUTO 00000KT 9999 FEW037 BKN043 BKN170 20/18 Q1015 TEMPO BKN012 BECMG 29010KT

EXPIRED METARs :
  • 142200Z AUTO VRB01KT 9999 FEW041 BKN180 BKN220 20/18 Q1015 NOSIG
  • 142130Z AUTO 00000KT 9999 NCD 20/18 Q1015 BECMG 29010KT
  • 142100Z AUTO 00000KT CAVOK 20/17 Q1015 BECMG 29010KT
  • 142030Z AUTO 25002KT CAVOK 20/18 Q1015 NOSIG
  • 142000Z AUTO 26002KT CAVOK 21/18 Q1015 NOSIG

TAF AMD TAF LFPB
Valid from the 14 at 18:00 until the 15 at 18:00 UTC


141800Z 1418/1518 29010KT 9999 SCT030 BKN050
PROB40
TEMPO 1418/1420 SCT030CB
PROB30
TEMPO 1418/1419 4000 -SHRA
TEMPO 1500/1510 BKN012
PROB40
TEMPO 1505/1507 4000 BR BKN006
BECMG 1516/1518 36005KT CAVOK
ATIS : +33 1 48 62 43 92



MET'MAP, your aeronautical weather chart ! - Copyright ORBIFLY December 2007 - Disclaimer

ORBIFLY MET'MAP TEAM :

Programming & Development : Alexandra Zaïnal
Concept & original design : Baudouin d'Aumeries
Assistance for programming : Marc-Olivier Méhu
Technical & hardware support : Manuel Goepfert

Contact : metmap@orbifly.com




SOURCES & CREDITS :

   NOAA